Time;durP1;ratioP1;P1;durP2;ratioP2;P2;SDS_P1;SDS_P2;PMS_P1;PMS_P2;Temp;Humidity;BMP_temperature;BMP_pressure;BME280_temperature;BME280_humidity;BME280_pressure;Samples;Min_cycle;Max_cycle;Signal;HPM_P1;HPM_P2
2023/09/15 00:01:31;;;;;;;1999.90;999.90;;;18.10;99.90;;;;;;5055442;28;20506;-77
2023/09/15 00:03:57;;;;;;;1999.90;999.90;;;18.10;99.90;;;;;;5055208;28;20045;-77
2023/09/15 00:06:23;;;;;;;1999.90;999.90;;;18.10;99.90;;;;;;5055354;28;20025;-75
2023/09/15 00:08:49;;;;;;;1999.90;999.90;;;18.20;99.90;;;;;;5055239;28;20038;-77
2023/09/15 00:11:16;;;;;;;1999.90;999.90;;;18.20;99.90;;;;;;5055428;28;20059;-77
2023/09/15 00:13:42;;;;;;;1999.90;999.90;;;18.20;99.90;;;;;;5053756;28;20025;-77
2023/09/15 00:16:08;;;;;;;1999.90;999.90;;;18.20;99.90;;;;;;5055310;28;20021;-77
2023/09/15 00:18:33;;;;;;;1999.90;999.90;;;18.20;99.90;;;;;;5054989;28;20063;-75
2023/09/15 00:20:59;;;;;;;1999.90;999.90;;;18.20;99.90;;;;;;5055024;28;20089;-74
2023/09/15 00:23:25;;;;;;;1999.90;999.90;;;18.10;99.90;;;;;;5055399;28;20488;-74
2023/09/15 00:25:54;;;;;;;1999.90;999.90;;;18.10;99.90;;;;;;5055270;28;20152;-74
2023/09/15 00:28:21;;;;;;;1999.90;999.90;;;18.10;99.90;;;;;;5055110;28;20515;-77
2023/09/15 00:30:50;;;;;;;1999.90;999.90;;;18.10;99.90;;;;;;5055170;28;20036;-77
2023/09/15 00:33:16;;;;;;;1999.90;999.90;;;18.00;99.90;;;;;;5054712;28;20104;-74
2023/09/15 00:35:42;;;;;;;1999.90;999.90;;;18.00;99.90;;;;;;5054688;28;20021;-77
2023/09/15 00:38:08;;;;;;;1999.90;999.90;;;18.00;99.90;;;;;;5046170;28;20029;-75
2023/09/15 00:40:33;;;;;;;1999.90;999.90;;;18.00;99.90;;;;;;5040350;28;20044;-77
2023/09/15 00:42:59;;;;;;;1999.90;999.90;;;18.00;99.90;;;;;;5055094;28;20029;-77
2023/09/15 00:45:25;;;;;;;1999.90;999.90;;;17.90;99.90;;;;;;5033924;28;20075;-74
2023/09/15 00:47:56;;;;;;;1999.90;999.90;;;17.90;99.90;;;;;;5034606;28;20123;-77
2023/09/15 00:50:25;;;;;;;1999.90;999.90;;;17.90;99.90;;;;;;5044676;28;20033;-74
2023/09/15 00:53:09;;;;;;;1999.90;999.90;;;17.90;99.90;;;;;;5046382;28;20492;-77
2023/09/15 00:55:36;;;;;;;1999.90;999.90;;;17.90;99.90;;;;;;5050201;28;20052;-77
2023/09/15 00:58:03;;;;;;;1999.90;999.90;;;17.90;99.90;;;;;;5054397;28;20025;-75
2023/09/15 01:00:30;;;;;;;1999.90;999.90;;;17.90;99.90;;;;;;5045665;28;20052;-77
2023/09/15 01:02:56;;;;;;;1999.90;999.90;;;17.80;99.90;;;;;;5035787;28;20041;-77
2023/09/15 01:05:24;;;;;;;1999.90;999.90;;;17.90;99.90;;;;;;5053632;28;20052;-77
2023/09/15 01:07:52;;;;;;;1999.90;999.90;;;17.80;99.90;;;;;;5054243;28;20559;-74
2023/09/15 01:10:21;;;;;;;1999.90;999.90;;;17.80;99.90;;;;;;5054125;28;20369;-75
2023/09/15 01:12:49;;;;;;;1999.90;999.90;;;17.80;99.90;;;;;;5054094;28;20041;-74
2023/09/15 01:15:17;;;;;;;1999.90;999.90;;;17.80;99.90;;;;;;5054015;28;20507;-77
2023/09/15 01:18:01;;;;;;;1999.90;999.90;;;17.80;99.90;;;;;;5052966;28;20376;-77
2023/09/15 01:21:20;;;;;;;1999.90;999.90;;;17.80;99.90;;;;;;5054073;28;20033;-74
2023/09/15 01:24:10;;;;;;;1999.90;999.90;;;17.80;99.90;;;;;;5054212;28;20048;-74
2023/09/15 01:27:02;;;;;;;1999.90;999.90;;;17.80;99.90;;;;;;5054220;28;20100;-77
2023/09/15 01:29:40;;;;;;;1999.90;999.90;;;17.80;99.90;;;;;;5054175;28;20029;-77
2023/09/15 01:32:09;;;;;;;1999.90;999.90;;;17.70;99.90;;;;;;5053827;28;20052;-77
2023/09/15 01:34:38;;;;;;;1999.90;999.90;;;17.70;99.90;;;;;;5053779;28;20017;-77
2023/09/15 01:37:04;;;;;;;1999.90;999.90;;;17.70;99.90;;;;;;5048869;28;20055;-74
2023/09/15 01:39:30;;;;;;;1999.90;999.90;;;17.70;99.90;;;;;;5041445;28;20083;-74
2023/09/15 01:42:02;;;;;;;1999.90;999.90;;;17.60;99.90;;;;;;5049578;28;20029;-74
2023/09/15 01:44:28;;;;;;;1999.90;999.90;;;17.60;99.90;;;;;;5033871;28;20071;-77
2023/09/15 01:46:53;;;;;;;1999.90;999.90;;;17.70;99.90;;;;;;5033359;28;20033;-77
2023/09/15 01:49:20;;;;;;;1999.90;999.90;;;17.60;99.90;;;;;;5039194;28;20025;-77
2023/09/15 01:51:47;;;;;;;1999.90;999.90;;;17.60;99.90;;;;;;5035885;28;20124;-74
2023/09/15 01:54:13;;;;;;;1999.90;999.90;;;17.60;99.90;;;;;;5040641;28;20029;-77
2023/09/15 01:56:39;;;;;;;1999.90;999.90;;;17.60;99.90;;;;;;5045174;28;20064;-77
2023/09/15 01:59:05;;;;;;;1999.90;999.90;;;17.60;99.90;;;;;;5033413;28;20485;-77
2023/09/15 02:01:31;;;;;;;1999.90;999.90;;;17.50;99.90;;;;;;5033631;28;20033;-74
2023/09/15 02:03:56;;;;;;;1999.90;999.90;;;17.50;99.90;;;;;;5045373;28;20049;-75
2023/09/15 02:06:22;;;;;;;1999.90;999.90;;;17.50;99.90;;;;;;5053075;28;20040;-77
2023/09/15 02:08:48;;;;;;;1999.90;999.90;;;17.40;99.90;;;;;;5053264;28;20039;-77
2023/09/15 02:11:13;;;;;;;1999.90;999.90;;;17.40;99.90;;;;;;5053242;28;20025;-77
2023/09/15 02:13:40;;;;;;;1999.90;999.90;;;17.40;99.90;;;;;;5053220;28;20058;-77
2023/09/15 02:16:06;;;;;;;1999.90;999.90;;;17.30;99.90;;;;;;5053173;28;20029;-74
2023/09/15 02:18:32;;;;;;;1999.90;999.90;;;17.30;99.90;;;;;;5052973;28;20122;-77
2023/09/15 02:20:57;;;;;;;1999.90;999.90;;;17.40;99.90;;;;;;5053134;28;20047;-77
2023/09/15 02:23:24;;;;;;;1999.90;999.90;;;17.30;99.90;;;;;;5051572;28;20033;-74
2023/09/15 02:25:50;;;;;;;1999.90;999.90;;;17.30;99.90;;;;;;5053064;28;20060;-77
2023/09/15 02:28:16;;;;;;;1999.90;999.90;;;17.30;99.90;;;;;;5053348;28;20074;-74
2023/09/15 02:30:42;;;;;;;1999.90;999.90;;;17.30;99.90;;;;;;5052901;28;20488;-75
2023/09/15 02:33:07;;;;;;;1999.90;999.90;;;17.30;99.90;;;;;;5052911;28;20102;-77
2023/09/15 02:35:34;;;;;;;1999.90;999.90;;;17.30;99.90;;;;;;5052580;28;20025;-77
2023/09/15 02:37:59;;;;;;;1999.90;999.90;;;17.20;99.90;;;;;;5039767;28;20041;-77
2023/09/15 02:40:25;;;;;;;1999.90;999.90;;;17.20;99.90;;;;;;5048136;28;20079;-74
2023/09/15 02:42:51;;;;;;;1999.90;999.90;;;17.20;99.90;;;;;;5044608;28;20060;-74
2023/09/15 02:45:17;;;;;;;1999.90;999.90;;;17.10;99.90;;;;;;5053053;28;20040;-77
2023/09/15 02:47:43;;;;;;;1999.90;999.90;;;17.20;99.90;;;;;;5052157;28;20506;-77
2023/09/15 02:50:08;;;;;;;1999.90;999.90;;;17.10;99.90;;;;;;5048743;28;20030;-77
2023/09/15 02:52:35;;;;;;;1999.90;999.90;;;17.10;99.90;;;;;;5047308;28;20028;-77
2023/09/15 02:55:01;;;;;;;1999.90;999.90;;;17.20;99.90;;;;;;5038268;28;20026;-74
2023/09/15 02:57:27;;;;;;;1999.90;999.90;;;17.10;99.90;;;;;;5033131;28;20030;-77
2023/09/15 02:59:53;;;;;;;1999.90;999.90;;;17.10;99.90;;;;;;5037306;28;20029;-77
2023/09/15 03:02:20;;;;;;;1999.90;999.90;;;17.10;99.90;;;;;;5032723;28;20056;-77
2023/09/15 03:04:46;;;;;;;1999.90;999.90;;;17.00;99.90;;;;;;5048704;28;20080;-77
2023/09/15 03:07:12;;;;;;;1999.90;999.90;;;17.00;99.90;;;;;;5052655;28;20110;-75
2023/09/15 03:09:38;;;;;;;1999.90;999.90;;;17.00;99.90;;;;;;5056634;28;20026;-75
2023/09/15 03:12:04;;;;;;;1999.90;999.90;;;16.90;99.90;;;;;;5056357;28;20020;-74
2023/09/15 03:14:29;;;;;;;1999.90;999.90;;;16.90;99.90;;;;;;5056230;28;20095;-77
2023/09/15 03:16:55;;;;;;;1999.90;999.90;;;16.90;99.90;;;;;;5056362;28;20024;-77
2023/09/15 03:19:22;;;;;;;1999.90;999.90;;;16.90;99.90;;;;;;5056479;28;20025;-74
2023/09/15 03:21:47;;;;;;;1999.90;999.90;;;16.90;99.90;;;;;;5056480;28;20460;-74
2023/09/15 03:24:13;;;;;;;1999.90;999.90;;;16.80;99.90;;;;;;5056294;28;20049;-77
2023/09/15 03:26:39;;;;;;;1999.90;999.90;;;16.80;99.90;;;;;;5056080;28;20108;-77
2023/09/15 03:29:06;;;;;;;1999.90;999.90;;;16.80;99.90;;;;;;5056146;28;20025;-75
2023/09/15 03:31:31;;;;;;;1999.90;999.90;;;16.80;99.90;;;;;;5056367;28;20017;-77
2023/09/15 03:33:57;;;;;;;1999.90;999.90;;;16.80;99.90;;;;;;5055922;28;20021;-74
2023/09/15 03:36:25;;;;;;;1999.90;999.90;;;16.80;99.90;;;;;;5055435;28;20028;-77
2023/09/15 03:38:51;;;;;;;1999.90;999.90;;;16.80;99.90;;;;;;5040557;28;20079;-77
2023/09/15 03:41:17;;;;;;;1999.90;999.90;;;16.80;99.90;;;;;;5049861;28;20423;-77
2023/09/15 03:43:43;;;;;;;1999.90;999.90;;;16.80;99.90;;;;;;5036083;28;20036;-74
2023/09/15 03:46:08;;;;;;;1999.90;999.90;;;16.80;99.90;;;;;;5035016;28;20025;-74
2023/09/15 03:48:34;;;;;;;1999.90;999.90;;;16.70;99.90;;;;;;5037687;28;20465;-75
2023/09/15 03:51:00;;;;;;;1999.90;999.90;;;16.70;99.90;;;;;;5041666;28;20037;-77
2023/09/15 03:53:26;;;;;;;1999.90;999.90;;;16.70;99.90;;;;;;5054484;28;20029;-74
2023/09/15 03:55:51;;;;;;;1999.90;999.90;;;16.70;99.90;;;;;;5056063;28;20420;-77
2023/09/15 03:58:17;;;;;;;1999.90;999.90;;;16.70;99.90;;;;;;5054723;28;20118;-75
2023/09/15 04:00:43;;;;;;;1999.90;999.90;;;16.70;99.90;;;;;;5045885;28;20021;-74
2023/09/15 04:03:09;;;;;;;1999.90;999.90;;;16.70;99.90;;;;;;5055429;28;20021;-77
2023/09/15 04:05:35;;;;;;;1999.90;999.90;;;16.70;99.90;;;;;;5055704;28;20049;-77
2023/09/15 04:08:00;;;;;;;1999.90;999.90;;;16.70;99.90;;;;;;5054706;28;20443;-74
2023/09/15 04:10:26;;;;;;;1999.90;999.90;;;16.70;99.90;;;;;;5055208;28;20044;-74
2023/09/15 04:12:51;;;;;;;1999.90;999.90;;;16.60;99.90;;;;;;5055352;28;20056;-75
2023/09/15 04:15:17;;;;;;;1999.90;999.90;;;16.60;99.90;;;;;;5055183;28;20021;-77
2023/09/15 04:17:43;;;;;;;1999.90;999.90;;;16.60;99.90;;;;;;5055539;28;20523;-74
2023/09/15 04:20:10;;;;;;;1999.90;999.90;;;16.60;99.90;;;;;;5054228;28;20052;-77
2023/09/15 04:22:42;;;;;;;1999.90;999.90;;;16.60;99.90;;;;;;5055182;28;20100;-74
2023/09/15 04:25:11;;;;;;;1999.90;999.90;;;16.50;99.90;;;;;;5055306;28;20511;-75
2023/09/15 04:27:36;;;;;;;1999.90;999.90;;;16.50;99.90;;;;;;5053036;28;20116;-74
2023/09/15 04:30:03;;;;;;;1999.90;999.90;;;16.40;99.90;;;;;;5037913;28;20108;-77
2023/09/15 04:32:28;;;;;;;1999.90;999.90;;;16.40;99.90;;;;;;5051908;28;20029;-76
2023/09/15 04:34:54;;;;;;;1999.90;999.90;;;16.40;99.90;;;;;;5046759;28;20075;-77
2023/09/15 04:37:21;;;;;;;1999.90;999.90;;;16.40;99.90;;;;;;5047399;28;20037;-74
2023/09/15 04:39:49;;;;;;;1999.90;999.90;;;16.40;99.90;;;;;;5040647;28;20026;-74
2023/09/15 04:42:15;;;;;;;1999.90;999.90;;;16.40;99.90;;;;;;5050478;28;20049;-77
2023/09/15 04:44:40;;;;;;;1999.90;999.90;;;16.30;99.90;;;;;;5050307;28;20131;-77
2023/09/15 04:47:06;;;;;;;1999.90;999.90;;;16.30;99.90;;;;;;5054947;28;20029;-74
2023/09/15 04:49:32;;;;;;;1999.90;999.90;;;16.30;99.90;;;;;;5044794;28;20033;-77
2023/09/15 04:51:58;;;;;;;1999.90;999.90;;;16.30;99.90;;;;;;5037967;28;20028;-74
2023/09/15 04:54:23;;;;;;;1999.90;999.90;;;16.30;99.90;;;;;;5046575;28;20033;-77
2023/09/15 04:56:49;;;;;;;1999.90;999.90;;;16.30;99.90;;;;;;5034636;28;20480;-74
2023/09/15 04:59:18;;;;;;;1999.90;999.90;;;16.20;99.90;;;;;;5048544;28;20107;-77
2023/09/15 05:01:45;;;;;;;1999.90;999.90;;;16.20;99.90;;;;;;5034680;28;20489;-74
2023/09/15 05:04:17;;;;;;;1999.90;999.90;;;16.20;99.90;;;;;;5049154;28;20045;-74
2023/09/15 05:06:43;;;;;;;1999.90;999.90;;;16.20;99.90;;;;;;5034584;28;20029;-77
2023/09/15 05:09:09;;;;;;;1999.90;999.90;;;16.20;99.90;;;;;;5034710;28;20026;-74
2023/09/15 05:11:35;;;;;;;1999.90;999.90;;;16.20;99.90;;;;;;5052982;28;20479;-77
2023/09/15 05:14:01;;;;;;;1999.90;999.90;;;16.20;99.90;;;;;;5054313;28;20059;-77
2023/09/15 05:16:27;;;;;;;1999.90;999.90;;;16.30;99.90;;;;;;5054140;28;20033;-77
2023/09/15 05:18:52;;;;;;;1999.90;999.90;;;16.30;99.90;;;;;;5054567;28;20446;-74
2023/09/15 05:21:18;;;;;;;1999.90;999.90;;;16.30;99.90;;;;;;5054092;28;20032;-77
2023/09/15 05:23:44;;;;;;;1999.90;999.90;;;16.30;99.90;;;;;;5054088;28;20035;-77
2023/09/15 05:26:09;;;;;;;1999.90;999.90;;;16.30;99.90;;;;;;5054233;28;20032;-77
2023/09/15 05:28:35;;;;;;;1999.90;999.90;;;16.20;99.90;;;;;;5053686;28;20079;-77
2023/09/15 05:31:00;;;;;;;1999.90;999.90;;;16.30;99.90;;;;;;5049629;28;20059;-74
2023/09/15 05:33:27;;;;;;;1999.90;999.90;;;16.30;99.90;;;;;;5043907;28;20057;-77
2023/09/15 05:35:58;;;;;;;1999.90;999.90;;;16.30;99.90;;;;;;5040671;28;20443;-77
2023/09/15 05:38:25;;;;;;;1999.90;999.90;;;16.30;99.90;;;;;;5036988;28;20034;-77
2023/09/15 05:40:51;;;;;;;1999.90;999.90;;;16.30;99.90;;;;;;5052015;28;20029;-77
2023/09/15 05:43:17;;;;;;;1999.90;999.90;;;16.30;99.90;;;;;;5065342;28;20037;-77
2023/09/15 05:45:43;;;;;;;1999.90;999.90;;;16.30;99.90;;;;;;5051979;28;20025;-74
2023/09/15 05:48:12;;;;;;;1999.90;999.90;;;16.30;99.90;;;;;;5067068;28;20050;-74
2023/09/15 05:50:39;;;;;;;1999.90;999.90;;;16.40;99.90;;;;;;5048321;28;20025;-74
2023/09/15 05:53:05;;;;;;;1999.90;999.90;;;16.40;99.90;;;;;;5052764;28;20498;-77
2023/09/15 05:55:31;;;;;;;1999.90;999.90;;;16.40;99.90;;;;;;5053006;28;20021;-74
2023/09/15 05:57:56;;;;;;;1999.90;999.90;;;16.40;99.90;;;;;;5051982;28;20486;-77
2023/09/15 06:00:22;;;;;;;1999.90;999.90;;;16.40;99.90;;;;;;5049512;28;20041;-77
2023/09/15 06:02:48;;;;;;;1999.90;999.90;;;16.40;99.90;;;;;;5042401;28;20539;-77
2023/09/15 06:05:14;;;;;;;1999.90;999.90;;;16.40;99.90;;;;;;5044066;28;20470;-77
2023/09/15 06:07:39;;;;;;;1999.90;999.90;;;16.40;99.90;;;;;;5052267;28;20041;-77
2023/09/15 06:10:07;;;;;;;1999.90;999.90;;;16.50;99.90;;;;;;5052894;28;20078;-74
2023/09/15 06:12:32;;;;;;;1999.90;999.90;;;16.50;99.90;;;;;;5052940;28;20104;-74
2023/09/15 06:14:58;;;;;;;1999.90;999.90;;;16.50;99.90;;;;;;5054526;28;20103;-77
2023/09/15 06:17:24;;;;;;;1999.90;999.90;;;16.60;99.90;;;;;;5050302;28;20025;-77
2023/09/15 06:19:50;;;;;;;1999.90;999.90;;;16.70;99.90;;;;;;5051667;28;20399;-77
2023/09/15 06:22:16;;;;;;;1999.90;999.90;;;16.70;99.90;;;;;;5051941;28;20027;-74
2023/09/15 06:24:41;;;;;;;1999.90;999.90;;;16.70;99.90;;;;;;5044294;28;20033;-74
2023/09/15 06:27:07;;;;;;;1999.90;999.90;;;16.70;99.90;;;;;;5051979;28;20027;-77
2023/09/15 06:29:33;;;;;;;1999.90;999.90;;;16.70;99.90;;;;;;5049578;28;20025;-74
2023/09/15 06:31:59;;;;;;;1999.90;999.90;;;16.80;99.90;;;;;;5051954;28;20574;-77
2023/09/15 06:34:25;;;;;;;1999.90;999.90;;;16.80;99.90;;;;;;5052113;28;20108;-74
2023/09/15 06:36:50;;;;;;;1999.90;999.90;;;16.90;99.90;;;;;;5049321;28;20021;-74
2023/09/15 06:39:16;;;;;;;1999.90;999.90;;;16.90;99.90;;;;;;5045711;28;20029;-74
2023/09/15 06:41:42;;;;;;;1999.90;999.90;;;17.00;99.90;;;;;;5048888;28;20470;-77
2023/09/15 06:44:10;;;;;;;1999.90;999.90;;;17.00;99.90;;;;;;5051856;28;20029;-77
2023/09/15 06:46:35;;;;;;;1999.90;999.90;;;17.10;99.90;;;;;;5051760;28;20025;-77
2023/09/15 06:49:01;;;;;;;1999.90;999.90;;;17.20;99.90;;;;;;5043433;28;20032;-77
2023/09/15 06:51:27;;;;;;;1999.90;999.90;;;17.40;99.90;;;;;;5040615;28;20451;-77
2023/09/15 06:53:53;;;;;;;1999.90;999.90;;;17.50;99.90;;;;;;5038301;28;21669;-74
2023/09/15 06:56:19;;;;;;;1999.90;999.90;;;17.70;99.90;;;;;;5048616;28;20032;-77
2023/09/15 06:58:46;;;;;;;1999.90;999.90;;;17.80;99.90;;;;;;5051162;28;20114;-74
2023/09/15 07:01:11;;;;;;;1999.90;999.90;;;17.90;99.90;;;;;;5050526;28;20025;-77
2023/09/15 07:03:37;;;;;;;1999.90;999.90;;;18.00;99.90;;;;;;5045098;28;20103;-75
2023/09/15 07:06:03;;;;;;;1999.90;999.90;;;18.10;99.90;;;;;;5045941;28;20037;-77
2023/09/15 07:08:29;;;;;;;1999.90;999.90;;;18.20;99.90;;;;;;5048956;28;20041;-78
2023/09/15 07:10:54;;;;;;;1999.90;999.90;;;18.30;99.90;;;;;;5045643;28;20063;-78
2023/09/15 07:13:20;;;;;;;1999.90;999.90;;;18.40;99.90;;;;;;5043389;28;20036;-74
2023/09/15 07:15:47;;;;;;;1999.90;999.90;;;18.50;99.90;;;;;;5052024;28;20029;-75
2023/09/15 07:18:13;;;;;;;1999.90;999.90;;;18.70;99.90;;;;;;5038473;28;20071;-74
2023/09/15 07:20:38;;;;;;;1999.90;999.90;;;18.70;99.90;;;;;;5041890;28;20039;-75
2023/09/15 07:23:04;;;;;;;1999.90;999.90;;;18.90;99.90;;;;;;5049183;28;20104;-75
2023/09/15 07:25:30;;;;;;;1999.90;999.90;;;19.00;99.90;;;;;;5041938;28;21167;-79
2023/09/15 07:27:55;;;;;;;1999.90;999.90;;;19.20;99.90;;;;;;5044645;28;20028;-75
2023/09/15 07:30:21;;;;;;;1999.90;999.90;;;19.40;99.90;;;;;;5046397;28;20105;-79
2023/09/15 07:32:47;;;;;;;1999.90;999.90;;;19.50;99.90;;;;;;5045081;28;20078;-79
2023/09/15 07:35:14;;;;;;;1999.90;999.90;;;19.80;99.90;;;;;;5045015;28;20017;-79
2023/09/15 07:37:40;;;;;;;1999.90;999.90;;;19.90;99.90;;;;;;5045887;28;20036;-79
2023/09/15 07:40:07;;;;;;;1999.90;999.90;;;20.10;99.90;;;;;;5042219;28;20508;-75
2023/09/15 07:42:33;;;;;;;1999.90;999.90;;;20.30;99.90;;;;;;5043039;28;20037;-74
2023/09/15 07:44:59;;;;;;;1999.90;999.90;;;20.50;99.90;;;;;;5037607;28;20098;-79
2023/09/15 07:47:25;;;;;;;1999.90;999.90;;;20.80;99.90;;;;;;5046059;28;20029;-75
2023/09/15 07:49:51;;;;;;;1999.90;999.90;;;21.50;99.90;;;;;;5050355;28;20025;-75
2023/09/15 07:52:18;;;;;;;1999.90;999.90;;;24.30;99.90;;;;;;5042809;28;20160;-79
2023/09/15 07:54:44;;;;;;;1999.90;999.90;;;26.60;99.90;;;;;;5043917;28;20021;-79
2023/09/15 07:57:10;;;;;;;1999.90;999.90;;;27.40;99.90;;;;;;5046394;28;20083;-79
2023/09/15 07:59:35;;;;;;;1999.90;999.90;;;28.40;99.90;;;;;;5048809;28;20025;-75
2023/09/15 08:02:03;;;;;;;1999.90;999.90;;;27.80;99.90;;;;;;5053900;28;20029;-80
2023/09/15 08:04:29;;;;;;;1999.90;999.90;;;28.80;99.90;;;;;;5058966;28;20178;-72
2023/09/15 08:06:55;;;;;;;1999.90;999.90;;;29.50;99.90;;;;;;5053316;28;20108;-73
2023/09/15 08:09:20;;;;;;;1999.90;999.90;;;29.60;99.90;;;;;;5053775;28;20027;-78
2023/09/15 08:11:46;;;;;;;1999.90;999.90;;;30.30;99.90;;;;;;5053143;28;20028;-77
2023/09/15 08:14:11;;;;;;;1999.90;999.90;;;30.40;99.90;;;;;;5045177;28;20554;-77
2023/09/15 08:16:37;;;;;;;1999.90;999.90;;;30.40;99.90;;;;;;5049173;28;20060;-78
2023/09/15 08:19:03;;;;;;;1999.90;999.90;;;29.40;99.90;;;;;;5051763;28;20475;-73
2023/09/15 08:21:29;;;;;;;1999.90;999.90;;;30.60;99.90;;;;;;5053484;28;20029;-77
2023/09/15 08:23:55;;;;;;;1999.90;999.90;;;30.80;99.90;;;;;;5053383;28;20411;-77
2023/09/15 08:26:21;;;;;;;1999.90;999.90;;;30.00;99.90;;;;;;5053643;28;20029;-77
2023/09/15 08:28:46;;;;;;;1999.90;999.90;;;28.70;99.90;;;;;;5053515;28;20230;-77
2023/09/15 08:31:12;;;;;;;1999.90;999.90;;;27.30;99.90;;;;;;5052711;28;20024;-73
2023/09/15 08:33:37;;;;;;;1999.90;999.90;;;27.70;99.90;;;;;;5058514;28;20078;-77
2023/09/15 08:36:03;;;;;;;1999.90;999.90;;;29.20;99.90;;;;;;5057291;28;20064;-77
2023/09/15 08:38:31;;;;;;;1999.90;999.90;;;30.80;99.90;;;;;;5059105;28;20100;-77
2023/09/15 08:41:05;;;;;;;1999.90;999.90;;;31.20;99.90;;;;;;5053064;28;20033;-73
2023/09/15 08:43:32;;;;;;;1999.90;999.90;;;31.20;99.90;;;;;;5052421;28;20036;-73
2023/09/15 08:45:58;;;;;;;1999.90;999.90;;;30.40;99.90;;;;;;5051979;28;20419;-73
2023/09/15 08:48:27;;;;;;;1999.90;999.90;;;31.30;99.90;;;;;;5053129;28;20431;-77
2023/09/15 08:50:55;;;;;;;1999.90;999.90;;;30.60;99.90;;;;;;5053085;28;20570;-77
2023/09/15 08:53:21;;;;;;;1999.90;999.90;;;31.40;99.90;;;;;;5047783;28;20071;-78
2023/09/15 08:55:47;;;;;;;1999.90;999.90;;;32.10;99.90;;;;;;5051418;28;20046;-77
2023/09/15 08:58:13;;;;;;;1999.90;999.90;;;32.50;99.90;;;;;;5064597;28;20025;-77
2023/09/15 09:00:39;;;;;;;1999.90;999.90;;;33.60;99.90;;;;;;5072826;28;20065;-73
2023/09/15 09:03:05;;;;;;;1999.90;999.90;;;33.70;98.90;;;;;;5054171;28;20431;-73
2023/09/15 09:05:31;;;;;;;1999.90;999.90;;;32.20;99.90;;;;;;5052363;28;20057;-78
2023/09/15 09:08:01;;;;;;;1999.90;999.90;;;31.90;99.90;;;;;;5054142;28;20557;-78
2023/09/15 09:10:26;;;;;;;1999.90;999.90;;;32.40;99.90;;;;;;5070651;28;20017;-78
2023/09/15 09:12:52;;;;;;;1999.90;999.90;;;32.90;99.90;;;;;;5052296;28;20032;-73
2023/09/15 09:15:21;;;;;;;1999.90;999.90;;;33.50;99.30;;;;;;5065651;28;20028;-76
2023/09/15 09:17:46;;;;;;;1999.90;999.90;;;33.50;98.90;;;;;;5072254;28;20082;-77
2023/09/15 09:20:28;;;;;;;1999.90;999.90;;;33.70;98.60;;;;;;5072882;28;20029;-77
2023/09/15 09:22:54;;;;;;;1999.90;999.90;;;33.30;98.80;;;;;;5058270;28;20530;-78
2023/09/15 09:25:33;;;;;;;1999.90;999.90;;;32.00;99.90;;;;;;5050642;28;20037;-73
2023/09/15 09:27:59;;;;;;;1999.90;999.90;;;31.30;99.90;;;;;;5051815;28;20029;-73
2023/09/15 09:30:29;;;;;;;1999.90;999.90;;;30.80;99.90;;;;;;5051480;28;20024;-78
2023/09/15 09:32:55;;;;;;;1999.90;999.90;;;29.80;99.90;;;;;;5052163;28;20116;-77
2023/09/15 09:35:21;;;;;;;1999.90;999.90;;;29.50;99.90;;;;;;5048957;28;20120;-77
2023/09/15 09:37:47;;;;;;;1999.90;999.90;;;29.80;99.90;;;;;;5047785;28;20458;-74
2023/09/15 09:40:13;;;;;;;1999.90;999.90;;;29.40;99.90;;;;;;5052053;28;20048;-73
2023/09/15 09:42:40;;;;;;;1999.90;999.90;;;29.60;99.90;;;;;;5052358;28;20492;-77
2023/09/15 09:45:07;;;;;;;1999.90;999.90;;;29.20;99.90;;;;;;5052126;28;20455;-78
2023/09/15 09:47:33;;;;;;;1999.90;999.90;;;29.30;99.90;;;;;;5051781;28;20035;-77
2023/09/15 09:49:58;;;;;;;1999.90;999.90;;;29.30;99.90;;;;;;5052282;28;20029;-73
2023/09/15 09:52:25;;;;;;;1999.90;999.90;;;29.10;99.90;;;;;;5057185;28;20024;-77
2023/09/15 09:54:51;;;;;;;1999.90;999.90;;;28.90;99.90;;;;;;5059506;28;20032;-77
2023/09/15 09:57:17;;;;;;;1999.90;999.90;;;28.90;99.90;;;;;;5055573;28;20029;-77
2023/09/15 09:59:44;;;;;;;1999.90;999.90;;;28.50;99.90;;;;;;5054159;28;20064;-78
2023/09/15 10:02:11;;;;;;;1999.90;999.90;;;28.50;99.90;;;;;;5058086;28;20021;-79
2023/09/15 10:04:36;;;;;;;1999.90;999.90;;;28.90;99.90;;;;;;5056521;28;20411;-75
2023/09/15 10:07:04;;;;;;;1999.90;999.90;;;28.80;99.90;;;;;;5049368;28;20029;-79
2023/09/15 10:09:31;;;;;;;1999.90;999.90;;;28.60;99.90;;;;;;5042417;28;20485;-78
2023/09/15 10:11:56;;;;;;;1999.90;999.90;;;28.80;99.90;;;;;;5050823;28;20025;-78
2023/09/15 10:14:23;;;;;;;1999.90;999.90;;;28.80;99.90;;;;;;5043585;28;20051;-77
2023/09/15 10:16:50;;;;;;;1999.90;999.90;;;29.40;99.90;;;;;;5046089;28;20110;-74
2023/09/15 10:19:16;;;;;;;1999.90;999.90;;;29.60;99.90;;;;;;5045885;28;20040;-77
2023/09/15 10:21:42;;;;;;;1999.90;999.90;;;29.60;99.90;;;;;;5041996;28;20075;-77
2023/09/15 10:24:10;;;;;;;1999.90;999.90;;;29.30;99.90;;;;;;5044468;28;20387;-77
2023/09/15 10:26:41;;;;;;;1999.90;999.90;;;29.20;99.90;;;;;;5045775;28;20064;-77
2023/09/15 10:29:07;;;;;;;1999.90;999.90;;;28.90;99.90;;;;;;5048550;28;20029;-73
2023/09/15 10:31:34;;;;;;;1999.90;999.90;;;28.80;99.90;;;;;;5050198;28;20466;-75
2023/09/15 10:34:04;;;;;;;1999.90;999.90;;;28.80;99.90;;;;;;5060569;28;20017;-74
2023/09/15 10:36:32;;;;;;;1999.90;999.90;;;28.60;99.90;;;;;;5050814;28;20056;-77
2023/09/15 10:38:58;;;;;;;1999.90;999.90;;;28.70;99.90;;;;;;5050752;28;20484;-76
2023/09/15 10:41:30;;;;;;;1999.90;999.90;;;28.60;99.90;;;;;;5050319;28;20099;-74
2023/09/15 10:43:56;;;;;;;1999.90;999.90;;;28.50;99.90;;;;;;5065820;28;20076;-74
2023/09/15 10:46:33;;;;;;;1999.90;999.90;;;28.50;99.90;;;;;;5070445;28;20263;-77
2023/09/15 10:48:59;;;;;;;1999.90;999.90;;;28.80;99.90;;;;;;5069043;28;20116;-77
2023/09/15 10:51:25;;;;;;;1999.90;999.90;;;28.80;99.90;;;;;;5066080;28;20104;-77
2023/09/15 10:53:59;;;;;;;1999.90;999.90;;;28.80;99.90;;;;;;5050210;28;20037;-74
2023/09/15 10:56:25;;;;;;;1999.90;999.90;;;29.10;99.90;;;;;;5047445;28;20334;-74
2023/09/15 10:58:51;;;;;;;1999.90;999.90;;;28.70;99.90;;;;;;5048102;28;20423;-76
2023/09/15 11:01:18;;;;;;;1999.90;999.90;;;28.90;99.90;;;;;;5042907;28;20551;-77
2023/09/15 11:03:44;;;;;;;1999.90;999.90;;;29.10;99.90;;;;;;5044468;28;20488;-77
2023/09/15 11:06:14;;;;;;;1999.90;999.90;;;29.30;99.90;;;;;;5048735;28;20451;-77
2023/09/15 11:08:40;;;;;;;1999.90;999.90;;;28.90;99.90;;;;;;5046219;28;20049;-74
2023/09/15 11:11:08;;;;;;;1999.90;999.90;;;28.90;99.90;;;;;;5049255;28;20446;-74
2023/09/15 11:13:35;;;;;;;1999.90;999.90;;;28.80;99.90;;;;;;5046424;28;20033;-77
2023/09/15 11:16:02;;;;;;;1999.90;999.90;;;28.90;99.90;;;;;;5049558;28;20031;-77
2023/09/15 11:18:35;;;;;;;1999.90;999.90;;;28.90;99.90;;;;;;5047475;28;20041;-77
2023/09/15 11:21:01;;;;;;;1999.90;999.90;;;28.80;99.90;;;;;;5048924;28;20029;-74
2023/09/15 11:23:28;;;;;;;1999.90;999.90;;;28.80;99.90;;;;;;5046255;28;20511;-74
2023/09/15 11:26:04;;;;;;;1999.90;999.90;;;28.70;99.90;;;;;;5048442;28;20024;-77
2023/09/15 11:28:31;;;;;;;1999.90;999.90;;;29.00;99.90;;;;;;5045860;28;20036;-77
2023/09/15 11:30:57;;;;;;;1999.90;999.90;;;29.10;99.90;;;;;;5048821;28;20602;-77
2023/09/15 11:33:23;;;;;;;1999.90;999.90;;;29.20;99.90;;;;;;5050559;28;20033;-74
2023/09/15 11:35:49;;;;;;;1999.90;999.90;;;29.40;99.90;;;;;;5051380;28;20475;-74
2023/09/15 11:38:15;;;;;;;1999.90;999.90;;;29.40;99.90;;;;;;5052737;28;20032;-77
2023/09/15 11:40:47;;;;;;;1999.90;999.90;;;29.60;99.90;;;;;;5051954;28;20395;-77
2023/09/15 11:43:13;;;;;;;1999.90;999.90;;;29.90;99.90;;;;;;5051565;28;20033;-77
2023/09/15 11:45:41;;;;;;;1999.90;999.90;;;29.70;99.50;;;;;;5051915;28;20024;-77
2023/09/15 11:48:07;;;;;;;1999.90;999.90;;;29.60;99.90;;;;;;5046463;28;20032;-73
2023/09/15 11:50:33;;;;;;;1999.90;999.90;;;29.80;99.90;;;;;;5050503;28;20032;-77
2023/09/15 11:52:59;;;;;;;1999.90;999.90;;;29.90;99.40;;;;;;5046892;28;20032;-76
2023/09/15 11:55:26;;;;;;;1999.90;999.90;;;30.10;99.60;;;;;;5046617;28;20025;-77
2023/09/15 11:57:52;;;;;;;1999.90;999.90;;;30.00;99.90;;;;;;5044617;28;20432;-77